Time;durP1;ratioP1;P1;durP2;ratioP2;P2;SDS_P1;SDS_P2;PMS_P1;PMS_P2;Temp;Humidity;BMP_temperature;BMP_pressure;BME280_temperature;BME280_humidity;BME280_pressure;Samples;Min_cycle;Max_cycle;Signal;HPM_P1;HPM_P2
2021/06/18 00:02:23;;;;;;;5.90;4.47;;;25.90;65.40;;;;;;5054042;28;20048;-79
2021/06/18 00:04:50;;;;;;;5.80;4.15;;;25.90;65.60;;;;;;5065277;28;20541;-79
2021/06/18 00:07:15;;;;;;;5.05;4.53;;;25.80;65.30;;;;;;5062730;28;20082;-79
2021/06/18 00:09:41;;;;;;;5.10;4.10;;;25.80;65.50;;;;;;5058475;28;20424;-79
2021/06/18 00:12:07;;;;;;;6.60;4.10;;;25.70;65.40;;;;;;5052550;28;20039;-78
2021/06/18 00:14:33;;;;;;;5.93;4.07;;;25.60;65.10;;;;;;5054350;28;20029;-79
2021/06/18 00:16:59;;;;;;;5.28;4.10;;;25.60;65.10;;;;;;5054497;28;20025;-79
2021/06/18 00:19:24;;;;;;;6.80;4.80;;;25.60;65.10;;;;;;5053808;28;20530;-79
2021/06/18 00:21:50;;;;;;;7.47;4.60;;;25.50;65.40;;;;;;5054658;28;20081;-79
2021/06/18 00:24:16;;;;;;;4.03;3.63;;;25.40;65.80;;;;;;5055774;28;20021;-79
2021/06/18 00:26:42;;;;;;;5.97;3.75;;;25.30;66.10;;;;;;5066608;28;20032;-79
2021/06/18 00:29:08;;;;;;;5.38;4.13;;;25.30;66.20;;;;;;5054253;28;20035;-78
2021/06/18 00:31:33;;;;;;;5.10;4.00;;;25.20;66.60;;;;;;5040998;28;20057;-79
2021/06/18 00:33:59;;;;;;;6.38;4.15;;;25.20;66.60;;;;;;5050793;28;20036;-79
2021/06/18 00:36:24;;;;;;;5.72;4.30;;;25.10;66.50;;;;;;5067973;28;20464;-79
2021/06/18 00:38:50;;;;;;;5.47;4.38;;;25.10;66.60;;;;;;5054256;28;20025;-79
2021/06/18 00:41:16;;;;;;;8.30;4.68;;;25.00;66.60;;;;;;5053693;28;20435;-79
2021/06/18 00:43:43;;;;;;;7.57;4.85;;;25.00;67.00;;;;;;5056699;28;20053;-79
2021/06/18 00:46:09;;;;;;;5.75;4.45;;;25.00;67.30;;;;;;5057226;28;20028;-79
2021/06/18 00:48:35;;;;;;;4.78;3.97;;;25.00;67.10;;;;;;5057615;28;20116;-79
2021/06/18 00:51:01;;;;;;;6.25;4.22;;;25.00;67.20;;;;;;5057525;28;20020;-79
2021/06/18 00:53:27;;;;;;;5.35;4.00;;;24.90;67.50;;;;;;5062818;28;20033;-79
2021/06/18 00:55:53;;;;;;;5.40;3.97;;;24.90;67.30;;;;;;5057864;28;20059;-79
2021/06/18 00:58:18;;;;;;;5.28;4.15;;;24.90;67.70;;;;;;5056718;28;20090;-79
2021/06/18 01:00:46;;;;;;;5.80;4.45;;;24.90;67.40;;;;;;5068865;28;20462;-79
2021/06/18 01:03:12;;;;;;;4.47;3.92;;;24.90;67.50;;;;;;5047191;28;20024;-79
2021/06/18 01:05:39;;;;;;;6.05;4.35;;;24.90;67.50;;;;;;5047071;28;20473;-79
2021/06/18 01:08:07;;;;;;;5.50;4.40;;;24.90;67.60;;;;;;5040194;28;20115;-78
2021/06/18 01:10:42;;;;;;;6.90;4.22;;;24.90;67.40;;;;;;5071019;28;20025;-79
2021/06/18 01:13:36;;;;;;;4.97;4.47;;;24.90;67.40;;;;;;5056411;28;20037;-78
2021/06/18 01:16:28;;;;;;;7.80;4.60;;;24.90;67.40;;;;;;5074671;28;20103;-79
2021/06/18 01:18:59;;;;;;;5.05;4.18;;;25.00;67.40;;;;;;5057136;28;20024;-79
2021/06/18 01:21:32;;;;;;;8.07;4.45;;;25.00;67.40;;;;;;5055839;28;20059;-79
2021/06/18 01:24:20;;;;;;;5.03;4.53;;;25.00;67.50;;;;;;5057011;28;20135;-79
2021/06/18 01:27:33;;;;;;;6.95;4.38;;;25.00;68.00;;;;;;5043530;28;20013;-79
2021/06/18 01:30:17;;;;;;;5.13;4.45;;;24.90;68.50;;;;;;4992111;28;20095;-79
2021/06/18 01:32:45;;;;;;;6.57;4.75;;;24.90;68.40;;;;;;5036883;28;20036;-79
2021/06/18 01:35:21;;;;;;;6.28;4.90;;;24.90;68.40;;;;;;5064734;28;20032;-79
2021/06/18 01:37:49;;;;;;;8.27;5.53;;;24.90;68.90;;;;;;5056949;28;20056;-79
2021/06/18 01:40:17;;;;;;;7.32;5.00;;;24.90;69.10;;;;;;5056230;28;20429;-80
2021/06/18 01:42:45;;;;;;;6.57;5.63;;;24.70;69.10;;;;;;5069570;28;20095;-80
2021/06/18 01:45:13;;;;;;;8.45;5.90;;;24.70;70.00;;;;;;5056219;28;20033;-79
2021/06/18 01:47:42;;;;;;;8.65;6.15;;;24.70;70.70;;;;;;5056589;28;20031;-78
2021/06/18 01:50:11;;;;;;;9.15;5.82;;;24.70;71.90;;;;;;5072350;28;20423;-78
2021/06/18 01:52:40;;;;;;;9.57;6.30;;;24.70;72.50;;;;;;5055943;28;20504;-78
2021/06/18 01:55:07;;;;;;;12.48;6.28;;;24.60;72.70;;;;;;5055725;28;20112;-78
2021/06/18 01:57:35;;;;;;;7.78;6.00;;;24.50;73.00;;;;;;5056328;28;20028;-78
2021/06/18 02:00:03;;;;;;;10.55;6.38;;;24.50;73.10;;;;;;5053242;28;20020;-78
2021/06/18 02:02:29;;;;;;;10.45;7.07;;;24.50;73.80;;;;;;5052727;28;20029;-78
2021/06/18 02:04:56;;;;;;;8.95;6.90;;;24.50;74.10;;;;;;5056065;28;20017;-79
2021/06/18 02:07:26;;;;;;;9.98;7.38;;;24.50;74.70;;;;;;5055598;28;20385;-78
2021/06/18 02:09:53;;;;;;;9.55;7.35;;;24.40;75.30;;;;;;5058266;28;20029;-78
2021/06/18 02:12:20;;;;;;;11.35;8.05;;;24.30;75.60;;;;;;5052638;28;20041;-78
2021/06/18 02:14:48;;;;;;;8.68;7.05;;;24.20;76.20;;;;;;5060099;28;20101;-79
2021/06/18 02:17:15;;;;;;;11.20;7.95;;;24.20;76.50;;;;;;5055500;28;20078;-78
2021/06/18 02:19:43;;;;;;;10.13;7.43;;;24.20;76.50;;;;;;5056049;28;20380;-78
2021/06/18 02:22:12;;;;;;;10.98;7.95;;;24.30;76.20;;;;;;5055199;28;20096;-79
2021/06/18 02:24:39;;;;;;;12.65;8.27;;;24.20;76.30;;;;;;5055818;28;20027;-78
2021/06/18 02:27:06;;;;;;;10.85;8.27;;;24.30;76.30;;;;;;5055796;28;20020;-78
2021/06/18 02:29:32;;;;;;;11.20;7.82;;;24.30;76.30;;;;;;5055487;28;20027;-78
2021/06/18 02:32:01;;;;;;;10.75;7.30;;;24.20;76.20;;;;;;5070510;28;20103;-78
2021/06/18 02:34:27;;;;;;;9.77;7.80;;;24.20;76.40;;;;;;5035829;28;20055;-79
2021/06/18 02:36:52;;;;;;;12.18;8.13;;;24.20;76.30;;;;;;5055604;28;20051;-79
2021/06/18 02:39:18;;;;;;;10.27;7.78;;;24.20;76.50;;;;;;5073042;28;20036;-79
2021/06/18 02:41:44;;;;;;;11.15;7.93;;;24.20;76.50;;;;;;5055667;28;20025;-79
2021/06/18 02:44:10;;;;;;;11.23;8.27;;;24.20;76.60;;;;;;5041513;28;20076;-79
2021/06/18 02:47:06;;;;;;;10.88;8.10;;;24.20;76.90;;;;;;5030984;28;20082;-78
2021/06/18 02:49:44;;;;;;;12.90;8.20;;;24.10;76.90;;;;;;5045503;28;20066;-78
2021/06/18 02:52:15;;;;;;;12.05;8.00;;;24.20;77.00;;;;;;5032832;28;20374;-78
2021/06/18 02:54:50;;;;;;;12.65;7.97;;;24.10;76.90;;;;;;5031025;28;20385;-78
2021/06/18 02:57:27;;;;;;;14.15;7.90;;;24.10;76.90;;;;;;5034832;28;20071;-78
2021/06/18 03:00:09;;;;;;;12.48;8.23;;;24.20;76.90;;;;;;5046070;28;20025;-78
2021/06/18 03:02:55;;;;;;;9.70;7.45;;;24.20;76.70;;;;;;5017309;28;20081;-78
2021/06/18 03:05:23;;;;;;;9.52;7.07;;;24.10;76.30;;;;;;5025805;28;20048;-79
2021/06/18 03:07:56;;;;;;;8.88;6.70;;;24.10;75.90;;;;;;5034929;28;20025;-78
2021/06/18 03:10:26;;;;;;;12.95;7.45;;;24.10;75.80;;;;;;5018109;28;20035;-79
2021/06/18 03:13:23;;;;;;;13.43;7.40;;;24.10;75.50;;;;;;5046251;28;20025;-79
2021/06/18 03:15:49;;;;;;;10.10;6.85;;;24.10;75.50;;;;;;5051832;28;20056;-79
2021/06/18 03:18:20;;;;;;;9.32;6.53;;;24.10;75.20;;;;;;5018131;28;20029;-78
2021/06/18 03:20:49;;;;;;;8.88;6.70;;;24.10;74.50;;;;;;5035038;28;20067;-79
2021/06/18 03:23:17;;;;;;;10.88;6.93;;;24.10;74.40;;;;;;5026625;28;20029;-79
2021/06/18 03:25:44;;;;;;;9.57;6.60;;;24.10;74.30;;;;;;5035281;28;20032;-79
2021/06/18 03:28:12;;;;;;;7.82;6.50;;;24.10;74.20;;;;;;5045982;28;20441;-79
2021/06/18 03:30:38;;;;;;;12.68;6.30;;;24.20;74.20;;;;;;5052538;28;20025;-79
2021/06/18 03:33:06;;;;;;;8.50;6.95;;;24.20;74.00;;;;;;5052756;28;20584;-79
2021/06/18 03:35:33;;;;;;;8.15;6.00;;;24.10;73.60;;;;;;5022376;28;20025;-78
2021/06/18 03:38:00;;;;;;;9.85;6.38;;;24.20;73.20;;;;;;5031174;28;20039;-79
2021/06/18 03:40:26;;;;;;;6.75;5.88;;;24.10;72.80;;;;;;5014855;28;20124;-79
2021/06/18 03:42:53;;;;;;;8.23;5.85;;;24.10;72.20;;;;;;5038765;28;20051;-79
2021/06/18 03:45:21;;;;;;;9.65;6.30;;;24.10;71.90;;;;;;5052515;28;20063;-79
2021/06/18 03:47:48;;;;;;;7.50;5.47;;;24.20;71.60;;;;;;5034595;28;20031;-79
2021/06/18 03:50:22;;;;;;;10.80;5.03;;;24.10;71.10;;;;;;5027654;28;20029;-79
2021/06/18 03:52:48;;;;;;;6.45;5.00;;;24.10;71.00;;;;;;5052608;28;20028;-79
2021/06/18 03:55:14;;;;;;;7.43;4.70;;;24.20;69.90;;;;;;5027697;28;20032;-79
2021/06/18 03:57:41;;;;;;;8.57;5.10;;;24.10;69.20;;;;;;5035096;28;20083;-79
2021/06/18 04:00:09;;;;;;;8.80;4.95;;;24.20;68.80;;;;;;5033695;28;20138;-79
2021/06/18 04:02:36;;;;;;;5.38;4.18;;;24.20;68.00;;;;;;5034618;28;20021;-79
2021/06/18 04:05:02;;;;;;;6.93;5.03;;;24.20;67.50;;;;;;5031366;28;20017;-79
2021/06/18 04:07:30;;;;;;;5.80;4.05;;;24.20;67.40;;;;;;5034176;28;20033;-79
2021/06/18 04:09:57;;;;;;;5.95;4.07;;;24.20;67.10;;;;;;5031028;28;20034;-78
2021/06/18 04:12:23;;;;;;;4.97;3.67;;;24.20;66.70;;;;;;5033904;28;20078;-79
2021/06/18 04:14:49;;;;;;;9.15;4.07;;;24.20;66.30;;;;;;5052164;28;20111;-79
2021/06/18 04:17:14;;;;;;;5.70;4.20;;;24.20;66.10;;;;;;5036608;28;20029;-79
2021/06/18 04:19:43;;;;;;;6.15;3.72;;;24.20;65.90;;;;;;5038509;28;20029;-80
2021/06/18 04:22:14;;;;;;;5.45;3.50;;;24.20;65.70;;;;;;5035623;28;20029;-80
2021/06/18 04:24:40;;;;;;;4.68;3.53;;;24.20;65.80;;;;;;5034966;28;20099;-79
2021/06/18 04:27:06;;;;;;;5.43;3.47;;;24.20;65.60;;;;;;5045155;28;20052;-78
2021/06/18 04:29:31;;;;;;;7.32;3.58;;;24.20;65.40;;;;;;5055909;28;20026;-80
2021/06/18 04:31:57;;;;;;;5.75;3.30;;;24.20;66.00;;;;;;5058394;28;20044;-80
2021/06/18 04:34:23;;;;;;;5.57;3.17;;;24.20;65.20;;;;;;5037555;28;20021;-80
2021/06/18 04:36:48;;;;;;;7.18;3.17;;;24.20;65.10;;;;;;5038354;28;20070;-80
2021/06/18 04:39:14;;;;;;;4.90;2.85;;;24.20;64.90;;;;;;5036641;28;20064;-78
2021/06/18 04:41:40;;;;;;;5.10;2.88;;;24.20;64.80;;;;;;5037822;28;20305;-78
2021/06/18 04:44:06;;;;;;;4.18;2.95;;;24.20;64.60;;;;;;5054725;28;20566;-78
2021/06/18 04:46:32;;;;;;;4.15;2.58;;;24.20;64.60;;;;;;5034582;28;20049;-78
2021/06/18 04:48:57;;;;;;;4.55;2.72;;;24.20;64.40;;;;;;5037501;28;20060;-78
2021/06/18 04:51:23;;;;;;;8.48;2.97;;;24.20;64.20;;;;;;5036917;28;20113;-78
2021/06/18 04:53:53;;;;;;;3.78;3.00;;;24.20;64.20;;;;;;5037590;28;20049;-77
2021/06/18 04:56:19;;;;;;;2.95;2.65;;;24.30;64.00;;;;;;5037123;28;20040;-78
2021/06/18 04:58:44;;;;;;;5.20;2.75;;;24.30;63.90;;;;;;5054946;28;20025;-78
2021/06/18 05:01:10;;;;;;;4.45;2.70;;;24.30;64.00;;;;;;5036570;28;20072;-78
2021/06/18 05:03:36;;;;;;;3.40;2.63;;;24.30;63.80;;;;;;5030923;28;20049;-78
2021/06/18 05:06:02;;;;;;;4.28;2.25;;;24.30;63.70;;;;;;5039780;28;20060;-77
2021/06/18 05:08:28;;;;;;;5.80;2.63;;;24.30;63.70;;;;;;5054329;28;20029;-78
2021/06/18 05:10:53;;;;;;;7.03;2.50;;;24.40;63.50;;;;;;5030915;28;20025;-78
2021/06/18 05:13:19;;;;;;;4.50;2.60;;;24.30;63.50;;;;;;5032884;28;20033;-79
2021/06/18 05:15:45;;;;;;;11.27;2.80;;;24.40;63.30;;;;;;5030777;28;20485;-79
2021/06/18 05:18:11;;;;;;;3.40;2.53;;;24.40;63.50;;;;;;5028575;28;20025;-79
2021/06/18 05:20:36;;;;;;;3.97;2.40;;;24.40;63.20;;;;;;5029261;28;20025;-80
2021/06/18 05:23:02;;;;;;;4.03;2.45;;;24.50;63.60;;;;;;5031051;28;20017;-80
2021/06/18 05:25:28;;;;;;;5.97;2.33;;;24.50;63.70;;;;;;5030452;28;20465;-80
2021/06/18 05:27:53;;;;;;;4.35;2.50;;;24.50;63.80;;;;;;5048040;28;20048;-80
2021/06/18 05:30:19;;;;;;;3.17;2.50;;;24.50;64.50;;;;;;5058464;28;20028;-80
2021/06/18 05:32:46;;;;;;;7.35;2.70;;;24.50;64.60;;;;;;5068593;28;20457;-80
2021/06/18 05:35:12;;;;;;;4.78;2.53;;;24.50;64.90;;;;;;5039628;28;20053;-79
2021/06/18 05:37:38;;;;;;;5.93;2.30;;;24.50;63.80;;;;;;5023964;28;20048;-80
2021/06/18 05:40:05;;;;;;;4.78;2.63;;;24.60;63.30;;;;;;5036231;28;20120;-79
2021/06/18 05:42:31;;;;;;;3.83;2.55;;;24.60;63.80;;;;;;5049189;28;20045;-80
2021/06/18 05:44:57;;;;;;;4.82;2.33;;;24.60;64.00;;;;;;5025102;28;20080;-79
2021/06/18 05:47:22;;;;;;;3.50;2.28;;;24.60;63.50;;;;;;5025154;28;20040;-80
2021/06/18 05:49:48;;;;;;;7.95;2.05;;;24.70;63.50;;;;;;5032154;28;20029;-80
2021/06/18 05:52:13;;;;;;;3.42;2.22;;;24.70;63.70;;;;;;5035406;28;20112;-79
2021/06/18 05:54:39;;;;;;;4.53;2.50;;;24.70;64.00;;;;;;5026922;28;20032;-81
2021/06/18 05:57:05;;;;;;;3.35;2.05;;;24.80;64.10;;;;;;5026329;28;20458;-80
2021/06/18 05:59:31;;;;;;;3.40;2.38;;;24.80;64.50;;;;;;5042104;28;20017;-81
2021/06/18 06:01:57;;;;;;;3.28;2.15;;;24.80;64.70;;;;;;5034894;28;20040;-79
2021/06/18 06:04:22;;;;;;;4.70;3.55;;;24.90;64.20;;;;;;5037169;28;20024;-79
2021/06/18 06:06:48;;;;;;;3.35;2.28;;;24.90;63.60;;;;;;5029943;28;20021;-79
2021/06/18 06:09:13;;;;;;;4.55;2.20;;;25.00;63.50;;;;;;5026448;28;20462;-80
2021/06/18 06:11:39;;;;;;;2.78;2.10;;;25.10;62.70;;;;;;5022585;28;20056;-78
2021/06/18 06:14:05;;;;;;;3.25;2.00;;;25.10;62.10;;;;;;5035648;28;20041;-79
2021/06/18 06:16:33;;;;;;;3.15;2.00;;;25.10;60.90;;;;;;5020647;28;20032;-79
2021/06/18 06:18:59;;;;;;;1.98;1.77;;;25.20;61.10;;;;;;5027865;28;20104;-79
2021/06/18 06:21:26;;;;;;;3.80;2.15;;;25.20;60.80;;;;;;5021199;28;20040;-79
2021/06/18 06:23:51;;;;;;;3.35;1.92;;;25.20;60.90;;;;;;5036494;28;20021;-80
2021/06/18 06:26:21;;;;;;;4.85;2.20;;;25.20;61.40;;;;;;5037208;28;20089;-80
2021/06/18 06:28:47;;;;;;;5.82;2.20;;;25.20;61.30;;;;;;5029574;28;20021;-81
2021/06/18 06:31:13;;;;;;;3.13;2.55;;;25.30;61.30;;;;;;5021640;28;20036;-81
2021/06/18 06:33:38;;;;;;;4.40;2.17;;;25.30;61.10;;;;;;5035640;28;20033;-78
2021/06/18 06:36:04;;;;;;;3.33;2.00;;;25.30;60.90;;;;;;5034583;28;20024;-81
2021/06/18 06:38:31;;;;;;;5.05;2.17;;;25.30;61.00;;;;;;5037574;28;20071;-81
2021/06/18 06:40:57;;;;;;;3.60;2.10;;;25.40;61.60;;;;;;5027065;28;20112;-77
2021/06/18 06:43:23;;;;;;;5.43;2.70;;;25.50;61.00;;;;;;5032551;28;20060;-80
2021/06/18 06:45:49;;;;;;;6.35;2.53;;;25.50;61.50;;;;;;5023920;28;20025;-79
2021/06/18 06:48:15;;;;;;;3.30;2.47;;;25.50;62.10;;;;;;5041825;28;20036;-79
2021/06/18 06:50:41;;;;;;;4.95;2.50;;;25.50;62.20;;;;;;5047725;28;20024;-80
2021/06/18 06:53:07;;;;;;;4.88;2.50;;;25.60;62.20;;;;;;5045869;28;20037;-79
2021/06/18 06:55:34;;;;;;;4.15;2.47;;;25.60;62.70;;;;;;5055702;28;20024;-79
2021/06/18 06:58:00;;;;;;;4.28;2.58;;;25.70;62.60;;;;;;5056497;28;20057;-79
2021/06/18 07:00:26;;;;;;;4.32;2.90;;;25.70;62.70;;;;;;5054815;28;20642;-79
2021/06/18 07:02:51;;;;;;;3.90;2.65;;;25.80;62.90;;;;;;5048268;28;20023;-81
2021/06/18 07:05:17;;;;;;;5.70;2.90;;;25.80;62.90;;;;;;5055030;28;20029;-82
2021/06/18 07:07:43;;;;;;;4.75;2.67;;;25.80;62.60;;;;;;5046105;28;20485;-81
2021/06/18 07:10:09;;;;;;;3.63;2.88;;;25.90;62.90;;;;;;5062328;28;20487;-80
2021/06/18 07:12:35;;;;;;;4.95;3.47;;;25.90;61.50;;;;;;5050172;28;20074;-81
2021/06/18 07:15:00;;;;;;;3.67;2.60;;;25.90;61.10;;;;;;5045406;28;20470;-82
2021/06/18 07:17:26;;;;;;;6.03;2.92;;;26.00;61.70;;;;;;5058424;28;20028;-82
2021/06/18 07:19:54;;;;;;;6.15;2.80;;;26.10;61.50;;;;;;5057569;28;20027;-82
2021/06/18 07:22:21;;;;;;;2.75;2.40;;;26.10;61.10;;;;;;5051607;28;20039;-81
2021/06/18 07:24:48;;;;;;;3.00;2.60;;;26.10;61.50;;;;;;5051587;28;20536;-81
2021/06/18 07:27:15;;;;;;;3.85;2.80;;;26.20;61.20;;;;;;5061973;28;20050;-81
2021/06/18 07:29:43;;;;;;;4.53;2.50;;;26.20;61.30;;;;;;5054391;28;20464;-80
2021/06/18 07:32:11;;;;;;;3.97;2.63;;;26.20;61.40;;;;;;5043820;28;20059;-80
2021/06/18 07:34:37;;;;;;;3.25;2.60;;;26.30;61.30;;;;;;5050025;28;20029;-83
2021/06/18 07:37:04;;;;;;;2.92;2.70;;;26.20;61.30;;;;;;5073790;28;20031;-84
2021/06/18 07:39:30;;;;;;;5.18;2.90;;;26.30;61.50;;;;;;5055063;28;20028;-83
2021/06/18 07:41:56;;;;;;;3.63;2.90;;;26.30;60.80;;;;;;5045120;28;20051;-82
2021/06/18 07:44:22;;;;;;;3.97;2.55;;;26.40;60.70;;;;;;5037630;28;20482;-82
2021/06/18 07:46:47;;;;;;;4.10;3.05;;;26.50;60.70;;;;;;5048640;28;20024;-83
2021/06/18 07:49:13;;;;;;;5.40;3.20;;;26.60;60.90;;;;;;5054682;28;20115;-82
2021/06/18 07:51:39;;;;;;;5.15;2.60;;;26.80;60.50;;;;;;5056911;28;20032;-79
2021/06/18 07:54:05;;;;;;;5.45;2.88;;;27.00;59.30;;;;;;5077117;28;20523;-82
2021/06/18 07:56:37;;;;;;;4.43;2.58;;;27.10;59.00;;;;;;5058579;28;20480;-78
2021/06/18 07:59:03;;;;;;;4.30;2.95;;;27.20;59.00;;;;;;5068204;28;20032;-80
2021/06/18 08:01:28;;;;;;;5.65;3.05;;;27.30;58.40;;;;;;5057898;28;20408;-76
2021/06/18 08:03:54;;;;;;;6.25;3.20;;;27.40;58.30;;;;;;5075903;28;20472;-76
2021/06/18 08:06:19;;;;;;;4.50;3.05;;;27.50;57.90;;;;;;5056025;28;20492;-77
2021/06/18 08:08:45;;;;;;;3.75;2.78;;;27.50;57.50;;;;;;5065934;28;20021;-77
2021/06/18 08:11:12;;;;;;;4.35;2.72;;;27.60;57.50;;;;;;5054114;28;20040;-77
2021/06/18 08:13:38;;;;;;;4.03;3.30;;;27.60;57.30;;;;;;5048209;28;20045;-78
2021/06/18 08:16:05;;;;;;;8.05;3.53;;;27.60;58.50;;;;;;5057177;28;20036;-77
2021/06/18 08:18:31;;;;;;;5.13;3.35;;;27.60;57.80;;;;;;5055427;28;20466;-78
2021/06/18 08:20:56;;;;;;;9.75;3.30;;;27.60;58.40;;;;;;5055560;28;20465;-79
2021/06/18 08:23:22;;;;;;;6.50;3.65;;;27.60;59.20;;;;;;5057596;28;20031;-78
2021/06/18 08:25:49;;;;;;;5.45;3.03;;;27.60;59.10;;;;;;5057827;28;20461;-79
2021/06/18 08:28:15;;;;;;;4.22;3.13;;;27.60;59.30;;;;;;5056497;28;20104;-79
2021/06/18 08:30:41;;;;;;;4.75;3.35;;;27.60;59.30;;;;;;5057892;28;20028;-79
2021/06/18 08:33:07;;;;;;;6.15;3.15;;;27.60;59.50;;;;;;5058088;28;20229;-81
2021/06/18 08:35:33;;;;;;;5.88;3.20;;;27.60;59.80;;;;;;5058509;28;20053;-79
2021/06/18 08:38:01;;;;;;;7.15;3.20;;;27.60;60.00;;;;;;5076241;28;20389;-79
2021/06/18 08:40:32;;;;;;;6.75;3.45;;;27.50;59.90;;;;;;5038290;28;20025;-78
2021/06/18 08:42:58;;;;;;;6.17;3.07;;;27.50;60.30;;;;;;5054351;28;20041;-78
2021/06/18 08:45:24;;;;;;;4.85;3.38;;;27.40;59.90;;;;;;5045464;28;20294;-78
2021/06/18 08:47:50;;;;;;;4.60;3.53;;;27.40;60.00;;;;;;5054504;28;20029;-78
2021/06/18 08:50:23;;;;;;;4.97;3.60;;;27.40;59.70;;;;;;5055883;28;20123;-77
2021/06/18 08:53:00;;;;;;;3.83;3.40;;;27.50;60.10;;;;;;5058079;28;20155;-77
2021/06/18 08:55:29;;;;;;;8.73;4.30;;;27.50;59.90;;;;;;5045212;28;20025;-78
2021/06/18 08:57:58;;;;;;;5.13;3.50;;;27.50;59.80;;;;;;5038084;28;20068;-79
2021/06/18 09:00:26;;;;;;;6.70;3.63;;;27.50;59.50;;;;;;5057824;28;20025;-78
2021/06/18 09:02:52;;;;;;;6.75;3.50;;;27.60;60.00;;;;;;5036936;28;20044;-78
2021/06/18 09:05:21;;;;;;;4.90;3.90;;;27.60;60.10;;;;;;5047229;28;20036;-80
2021/06/18 09:07:58;;;;;;;5.10;3.72;;;27.60;60.00;;;;;;5051757;28;20031;-77
2021/06/18 09:10:23;;;;;;;6.13;3.90;;;27.70;59.10;;;;;;5057008;28;20033;-76
2021/06/18 09:13:09;;;;;;;7.85;3.72;;;27.80;59.10;;;;;;5074679;28;20435;-76
2021/06/18 09:15:36;;;;;;;7.43;3.67;;;27.90;58.60;;;;;;5074653;28;20025;-76
2021/06/18 09:18:36;;;;;;;5.85;3.65;;;28.10;59.10;;;;;;5056001;28;20025;-76
2021/06/18 09:21:01;;;;;;;5.70;3.50;;;28.20;58.20;;;;;;5036854;28;20082;-76
2021/06/18 09:23:41;;;;;;;4.75;3.63;;;28.40;57.60;;;;;;5035784;28;20109;-76
2021/06/18 09:26:21;;;;;;;14.77;4.47;;;28.40;57.30;;;;;;5032535;28;20563;-76
2021/06/18 09:29:07;;;;;;;6.13;4.03;;;28.40;57.60;;;;;;5036685;28;20077;-77
2021/06/18 09:31:51;;;;;;;5.53;3.85;;;28.50;58.00;;;;;;5051963;28;20032;-77
2021/06/18 09:34:40;;;;;;;5.50;3.65;;;28.50;58.10;;;;;;5056253;28;20033;-77
2021/06/18 09:37:13;;;;;;;7.05;4.28;;;28.60;57.60;;;;;;5056386;28;20031;-76
2021/06/18 09:40:03;;;;;;;7.57;4.00;;;28.80;57.70;;;;;;5056269;28;20354;-76
2021/06/18 09:42:29;;;;;;;6.88;3.65;;;29.00;57.90;;;;;;5055894;28;20033;-76
2021/06/18 09:45:03;;;;;;;8.10;3.95;;;29.10;57.50;;;;;;5055796;28;20048;-77
2021/06/18 09:47:29;;;;;;;10.35;4.10;;;29.30;57.70;;;;;;5072872;28;20040;-77
2021/06/18 09:49:55;;;;;;;6.80;3.60;;;29.40;57.30;;;;;;5056107;28;20048;-77
2021/06/18 09:52:22;;;;;;;9.02;4.50;;;29.60;56.90;;;;;;5055791;28;20062;-76
2021/06/18 09:54:50;;;;;;;7.68;4.40;;;29.60;57.70;;;;;;5056046;28;20119;-77
2021/06/18 09:57:18;;;;;;;6.50;4.15;;;29.70;56.70;;;;;;5055539;28;20178;-77
2021/06/18 10:00:06;;;;;;;5.90;4.38;;;29.80;56.90;;;;;;5056294;28;20158;-76
2021/06/18 10:02:37;;;;;;;4.53;3.90;;;30.00;56.40;;;;;;5055420;28;20035;-76
2021/06/18 10:05:05;;;;;;;5.10;4.05;;;30.10;56.30;;;;;;5056152;28;20108;-77
2021/06/18 10:07:33;;;;;;;5.47;4.20;;;30.10;55.50;;;;;;5054828;28;20024;-77
2021/06/18 10:10:01;;;;;;;6.40;4.50;;;30.20;56.00;;;;;;5073556;28;20056;-77
2021/06/18 10:12:30;;;;;;;8.60;4.90;;;30.20;56.30;;;;;;5073473;28;20028;-77
2021/06/18 10:14:57;;;;;;;6.25;4.38;;;30.30;56.00;;;;;;5073538;28;20054;-76
2021/06/18 10:17:24;;;;;;;4.53;4.07;;;30.30;55.90;;;;;;5054945;28;20063;-77
2021/06/18 10:19:49;;;;;;;9.57;5.72;;;30.40;56.00;;;;;;5055729;28;20029;-77
2021/06/18 10:22:21;;;;;;;6.70;4.50;;;30.40;55.90;;;;;;5072921;28;20020;-78
2021/06/18 10:24:55;;;;;;;6.57;4.68;;;30.40;55.90;;;;;;5055479;28;20028;-77
2021/06/18 10:27:29;;;;;;;5.97;4.60;;;30.40;56.00;;;;;;5055100;28;20433;-77
2021/06/18 10:29:56;;;;;;;6.55;4.57;;;30.40;56.10;;;;;;5055159;28;20028;-76
2021/06/18 10:32:28;;;;;;;9.57;6.28;;;30.40;55.80;;;;;;5072540;28;20024;-77
2021/06/18 10:34:54;;;;;;;7.82;5.82;;;30.40;56.10;;;;;;5073568;28;20059;-77
2021/06/18 10:37:26;;;;;;;6.57;5.13;;;30.40;55.90;;;;;;5055199;28;20225;-77
2021/06/18 10:39:57;;;;;;;10.32;4.82;;;30.40;56.00;;;;;;5055356;28;20495;-77
2021/06/18 10:42:23;;;;;;;;;;;30.40;55.60;;;;;;5073303;28;20107;-78
2021/06/18 10:44:50;;;;;;;5.00;4.38;;;30.40;55.70;;;;;;5055074;28;20340;-78
2021/06/18 10:47:22;;;;;;;9.25;4.50;;;30.50;55.70;;;;;;5054518;28;20073;-77
2021/06/18 10:49:50;;;;;;;6.53;4.82;;;30.60;55.90;;;;;;5055389;28;20543;-78
2021/06/18 10:52:21;;;;;;;10.15;5.20;;;30.70;55.50;;;;;;5054661;28;20028;-78
2021/06/18 10:54:49;;;;;;;7.15;5.05;;;30.70;55.30;;;;;;5072876;28;20472;-77
2021/06/18 10:57:21;;;;;;;5.53;4.85;;;30.70;55.50;;;;;;5054939;28;20032;-77
2021/06/18 10:59:48;;;;;;;6.85;5.03;;;30.70;55.80;;;;;;5073009;28;20111;-78
2021/06/18 11:02:26;;;;;;;7.63;4.70;;;30.70;55.20;;;;;;5054836;28;20487;-77
2021/06/18 11:04:56;;;;;;;6.88;4.70;;;30.70;54.90;;;;;;5054963;28;20020;-78
2021/06/18 11:07:24;;;;;;;6.05;4.70;;;30.70;55.50;;;;;;5054316;28;20081;-77
2021/06/18 11:10:12;;;;;;;6.97;4.63;;;30.80;55.50;;;;;;5055372;28;20029;-78
2021/06/18 11:12:58;;;;;;;8.32;4.75;;;30.80;55.80;;;;;;5054998;28;20032;-77
2021/06/18 11:15:24;;;;;;;7.75;4.88;;;30.70;56.20;;;;;;5054796;28;20067;-77
2021/06/18 11:18:13;;;;;;;7.28;5.30;;;30.60;56.00;;;;;;5054962;28;20385;-78
2021/06/18 11:20:42;;;;;;;7.43;4.55;;;30.60;56.40;;;;;;5054871;28;20036;-77
2021/06/18 11:23:12;;;;;;;7.28;4.93;;;30.60;56.80;;;;;;5072594;28;20116;-78
2021/06/18 11:25:38;;;;;;;9.70;4.80;;;30.60;56.40;;;;;;5054765;28;20064;-78
2021/06/18 11:28:19;;;;;;;7.30;4.95;;;30.60;56.50;;;;;;5054366;28;20067;-77
2021/06/18 11:31:08;;;;;;;5.53;4.90;;;30.70;57.00;;;;;;5055040;28;20024;-77
2021/06/18 11:33:39;;;;;;;11.10;4.93;;;30.80;56.90;;;;;;5054481;28;20044;-77
2021/06/18 11:36:13;;;;;;;6.70;4.80;;;30.90;56.70;;;;;;5054557;28;20050;-77
2021/06/18 11:38:39;;;;;;;7.03;5.45;;;30.90;57.20;;;;;;5055150;28;20028;-77
2021/06/18 11:41:10;;;;;;;6.63;5.18;;;31.00;57.10;;;;;;5054512;28;20039;-78
2021/06/18 11:43:37;;;;;;;11.50;5.32;;;31.00;57.00;;;;;;5053817;28;20095;-78
2021/06/18 11:46:03;;;;;;;10.35;5.85;;;31.10;55.90;;;;;;5054568;28;20031;-77
2021/06/18 11:48:31;;;;;;;9.80;5.63;;;31.20;56.40;;;;;;5053888;28;20528;-78
2021/06/18 11:50:57;;;;;;;9.82;5.45;;;31.20;56.10;;;;;;5054688;28;20033;-78
2021/06/18 11:53:23;;;;;;;8.02;5.13;;;31.20;56.90;;;;;;5054033;28;20035;-79
2021/06/18 11:56:02;;;;;;;6.18;5.00;;;31.20;56.80;;;;;;5054432;28;20121;-79
2021/06/18 11:58:36;;;;;;;7.90;5.25;;;31.10;56.90;;;;;;5054039;28;20029;-78
2021/06/18 12:01:15;;;;;;;7.55;5.07;;;31.20;57.20;;;;;;5072627;28;20026;-78
2021/06/18 12:03:43;;;;;;;8.75;5.80;;;31.20;57.30;;;;;;5054421;28;20029;-77
2021/06/18 12:06:19;;;;;;;7.07;5.57;;;31.30;56.80;;;;;;5053944;28;20061;-77
2021/06/18 12:09:05;;;;;;;10.30;5.30;;;31.50;56.70;;;;;;5054451;28;20491;-78
2021/06/18 12:11:38;;;;;;;9.48;6.00;;;31.60;55.80;;;;;;5053579;28;20025;-77
2021/06/18 12:14:05;;;;;;;7.95;5.07;;;31.70;55.60;;;;;;5054534;28;20477;-77
2021/06/18 12:16:33;;;;;;;6.53;5.05;;;31.90;54.70;;;;;;5053722;28;20025;-78
2021/06/18 12:19:19;;;;;;;6.15;5.55;;;31.90;53.60;;;;;;5054254;28;20029;-77
2021/06/18 12:22:04;;;;;;;8.10;5.07;;;32.00;53.50;;;;;;5054557;28;20063;-77
2021/06/18 12:24:46;;;;;;;9.15;5.00;;;32.00;54.40;;;;;;5053160;28;20115;-78
2021/06/18 12:27:36;;;;;;;9.75;4.72;;;31.90;53.90;;;;;;5054177;28;20029;-78
2021/06/18 12:30:05;;;;;;;7.00;5.50;;;31.90;54.40;;;;;;5049282;28;20040;-78
2021/06/18 12:32:33;;;;;;;6.13;5.07;;;31.80;54.80;;;;;;5033485;28;20055;-77
2021/06/18 12:35:04;;;;;;;7.28;4.85;;;31.80;54.60;;;;;;5034354;28;20053;-77
2021/06/18 12:37:35;;;;;;;8.18;5.00;;;31.70;54.80;;;;;;5051609;28;20025;-78
2021/06/18 12:40:11;;;;;;;13.23;4.75;;;31.70;54.80;;;;;;5037517;28;20483;-78
2021/06/18 12:42:47;;;;;;;6.25;5.03;;;31.70;54.00;;;;;;5036831;28;20465;-78
2021/06/18 12:45:16;;;;;;;8.13;4.68;;;31.80;54.50;;;;;;5037742;28;20040;-78
2021/06/18 12:47:53;;;;;;;8.60;5.22;;;31.70;54.50;;;;;;5055270;28;20033;-77
2021/06/18 12:50:32;;;;;;;8.48;5.15;;;31.80;54.70;;;;;;5054871;28;20477;-78
2021/06/18 12:53:03;;;;;;;8.20;5.00;;;31.80;53.90;;;;;;5038031;28;20037;-77
2021/06/18 12:55:33;;;;;;;6.05;4.47;;;31.80;53.80;;;;;;5036948;28;20029;-79
2021/06/18 12:58:19;;;;;;;6.40;4.55;;;31.90;52.70;;;;;;5037430;28;20470;-77